createdAt,value
2018-09-21T00:02:25.084Z,20.10
2018-09-21T00:04:52.520Z,20.00
2018-09-21T00:07:19.747Z,20.00
2018-09-21T00:09:46.920Z,20.00
2018-09-21T00:12:14.087Z,19.90
2018-09-21T00:14:41.247Z,19.90
2018-09-21T00:17:08.412Z,19.90
2018-09-21T00:19:35.592Z,19.90
2018-09-21T00:22:02.781Z,19.90
2018-09-21T00:24:29.928Z,19.90
2018-09-21T00:26:57.103Z,20.00
2018-09-21T00:29:24.296Z,20.00
2018-09-21T00:31:58.263Z,19.80
2018-09-21T00:34:25.428Z,19.60
2018-09-21T00:36:52.672Z,19.60
2018-09-21T00:39:19.864Z,19.60
2018-09-21T00:41:47.040Z,19.60
2018-09-21T00:44:14.204Z,19.50
2018-09-21T00:46:41.419Z,19.40
2018-09-21T00:49:08.590Z,19.30
2018-09-21T00:51:35.769Z,19.30
2018-09-21T00:54:02.947Z,19.40
2018-09-21T00:56:30.122Z,19.40
2018-09-21T00:58:57.279Z,19.30
2018-09-21T01:01:31.307Z,19.30
2018-09-21T01:03:58.480Z,19.10
2018-09-21T01:06:25.645Z,19.00
2018-09-21T01:08:52.815Z,19.00
2018-09-21T01:11:19.988Z,18.90
2018-09-21T01:13:47.172Z,18.80
2018-09-21T01:16:14.352Z,18.90
2018-09-21T01:18:41.500Z,18.90
2018-09-21T01:21:08.679Z,18.80
2018-09-21T01:23:35.860Z,18.80
2018-09-21T01:26:03.070Z,18.80
2018-09-21T01:28:30.239Z,18.80
2018-09-21T01:30:57.412Z,18.80
2018-09-21T01:33:24.564Z,18.70
2018-09-21T01:35:51.784Z,18.70
2018-09-21T01:38:18.948Z,18.70
2018-09-21T01:40:46.171Z,18.70
2018-09-21T01:43:13.310Z,18.70
2018-09-21T01:45:40.476Z,18.60
2018-09-21T01:48:07.663Z,18.60
2018-09-21T01:50:34.987Z,18.60
2018-09-21T01:53:02.029Z,18.60
2018-09-21T01:55:29.227Z,18.50
2018-09-21T01:57:56.371Z,18.50
2018-09-21T02:00:23.540Z,18.50
2018-09-21T02:02:53.627Z,18.50
2018-09-21T02:05:20.800Z,18.40
2018-09-21T02:07:47.966Z,18.40
2018-09-21T02:10:15.141Z,18.50
2018-09-21T02:12:42.407Z,18.50
2018-09-21T02:15:09.577Z,18.40
2018-09-21T02:17:36.803Z,18.40
2018-09-21T02:20:03.948Z,18.50
2018-09-21T02:22:31.091Z,18.50
2018-09-21T02:24:58.264Z,18.50
2018-09-21T02:27:25.419Z,18.50
2018-09-21T02:29:52.575Z,18.40
2018-09-21T02:32:19.774Z,18.40
2018-09-21T02:34:47.069Z,18.40
2018-09-21T02:37:14.268Z,18.30
2018-09-21T02:39:41.418Z,18.30
2018-09-21T02:42:08.595Z,18.40
2018-09-21T02:44:35.744Z,18.50
2018-09-21T02:47:02.940Z,18.50
2018-09-21T02:49:30.132Z,18.50
2018-09-21T02:51:57.278Z,18.50
2018-09-21T02:54:31.094Z,18.50
2018-09-21T02:56:58.260Z,18.40
2018-09-21T02:59:25.411Z,18.40
2018-09-21T03:01:52.583Z,18.20
2018-09-21T03:04:19.750Z,18.20
2018-09-21T03:06:46.916Z,18.20
2018-09-21T03:09:14.075Z,18.10
2018-09-21T03:11:41.248Z,18.00
2018-09-21T03:14:09.089Z,18.00
2018-09-21T03:16:36.326Z,18.10
2018-09-21T03:19:03.534Z,18.10
2018-09-21T03:21:30.767Z,18.20
2018-09-21T03:23:57.920Z,18.10
2018-09-21T03:28:59.200Z,17.90
2018-09-21T03:31:26.367Z,17.80
2018-09-21T03:33:53.516Z,17.80
2018-09-21T03:36:20.703Z,17.80
2018-09-21T03:38:47.868Z,17.90
2018-09-21T03:41:15.025Z,18.00
2018-09-21T03:43:42.225Z,18.10
2018-09-21T03:46:09.407Z,18.10
2018-09-21T03:48:36.623Z,18.10
2018-09-21T03:51:03.807Z,17.90
2018-09-21T03:53:31.032Z,17.90
2018-09-21T03:55:58.180Z,17.80
2018-09-21T03:58:25.360Z,17.80
2018-09-21T04:00:52.514Z,17.70
2018-09-21T04:03:19.697Z,17.70
2018-09-21T04:05:46.859Z,17.70
2018-09-21T04:08:14.010Z,17.70
2018-09-21T04:10:41.178Z,17.70
2018-09-21T04:13:08.359Z,17.70
2018-09-21T04:15:35.513Z,17.80
2018-09-21T04:18:02.701Z,17.80
2018-09-21T04:20:29.859Z,17.80
2018-09-21T04:22:59.488Z,17.90
2018-09-21T04:25:26.896Z,17.80
2018-09-21T04:27:54.121Z,17.90
2018-09-21T04:30:21.279Z,17.80
2018-09-21T04:32:48.431Z,17.80
2018-09-21T04:35:15.595Z,17.80
2018-09-21T04:37:42.750Z,17.70
2018-09-21T04:40:09.910Z,17.70
2018-09-21T04:42:37.100Z,17.80
2018-09-21T04:45:11.184Z,17.80
2018-09-21T04:47:39.464Z,17.80
2018-09-21T04:50:06.672Z,17.80
2018-09-21T04:52:33.862Z,17.80
2018-09-21T04:55:01.000Z,17.80
2018-09-21T04:57:28.154Z,17.90
2018-09-21T04:59:55.319Z,18.00
2018-09-21T05:02:22.475Z,18.00
2018-09-21T05:04:49.656Z,18.00
2018-09-21T05:07:16.893Z,18.00
2018-09-21T05:09:44.060Z,18.00
2018-09-21T05:12:11.391Z,18.10
2018-09-21T05:14:38.555Z,18.20
2018-09-21T05:17:05.715Z,18.20
2018-09-21T05:19:32.875Z,18.20
2018-09-21T05:22:00.112Z,18.30
2018-09-21T05:24:27.284Z,18.40
2018-09-21T05:26:54.447Z,18.50
2018-09-21T05:29:21.607Z,18.50
2018-09-21T05:31:48.807Z,18.50
2018-09-21T05:34:16.039Z,18.50
2018-09-21T05:36:43.143Z,18.40
2018-09-21T05:39:12.392Z,18.40
2018-09-21T05:41:39.543Z,18.40
2018-09-21T05:44:07.003Z,18.40
2018-09-21T05:46:34.342Z,18.40
2018-09-21T05:49:01.556Z,18.40
2018-09-21T05:51:28.776Z,18.40
2018-09-21T05:53:55.935Z,18.40
2018-09-21T05:56:23.251Z,18.50
2018-09-21T05:58:50.906Z,18.40
2018-09-21T06:03:52.233Z,18.50
2018-09-21T06:06:19.452Z,18.50
2018-09-21T06:08:46.624Z,18.50
2018-09-21T06:11:13.775Z,18.60
2018-09-21T06:13:41.006Z,18.60
2018-09-21T06:16:08.175Z,18.80
2018-09-21T06:18:35.326Z,18.90
2018-09-21T06:21:02.561Z,19.00
2018-09-21T06:23:29.809Z,19.20
2018-09-21T06:25:56.991Z,19.40
2018-09-21T06:28:24.299Z,19.50
2018-09-21T06:30:51.467Z,19.60
2018-09-21T06:33:18.619Z,19.80
2018-09-21T06:35:45.820Z,19.90
2018-09-21T06:38:12.999Z,20.00
2018-09-21T06:40:40.276Z,20.00
2018-09-21T06:43:07.450Z,20.00
2018-09-21T06:45:34.623Z,20.00
2018-09-21T06:48:01.806Z,20.00
2018-09-21T06:50:28.976Z,20.00
2018-09-21T06:52:56.140Z,20.10
2018-09-21T06:55:23.399Z,20.20
2018-09-21T06:57:50.543Z,20.20
2018-09-21T07:00:17.733Z,20.20
2018-09-21T07:02:44.940Z,20.20
2018-09-21T07:05:13.532Z,20.30
2018-09-21T07:07:41.063Z,20.40
2018-09-21T07:10:08.353Z,20.50
2018-09-21T07:12:35.464Z,20.60
2018-09-21T07:15:02.691Z,20.60
2018-09-21T07:17:29.844Z,20.60
2018-09-21T07:19:57.020Z,20.70
2018-09-21T07:22:24.257Z,20.70
2018-09-21T07:24:51.435Z,20.80
2018-09-21T07:27:18.624Z,20.80
2018-09-21T07:29:45.782Z,20.80
2018-09-21T07:32:13.069Z,20.90
2018-09-21T07:34:40.257Z,20.90
2018-09-21T07:37:07.459Z,20.90
2018-09-21T07:39:34.612Z,20.90
2018-09-21T07:42:01.776Z,21.00
2018-09-21T07:44:29.000Z,21.00
2018-09-21T07:47:02.908Z,21.00
2018-09-21T07:49:30.076Z,21.10
2018-09-21T07:51:57.243Z,21.10
2018-09-21T07:54:24.443Z,21.20
2018-09-21T07:56:51.591Z,21.20
2018-09-21T07:59:18.747Z,21.30
2018-09-21T08:01:45.924Z,21.40
2018-09-21T08:04:13.091Z,21.50
2018-09-21T08:06:40.251Z,21.60
2018-09-21T08:09:08.523Z,21.70
2018-09-21T08:11:36.189Z,21.80
2018-09-21T08:14:10.083Z,21.90
2018-09-21T08:16:37.669Z,22.10
2018-09-21T08:19:05.555Z,22.30
2018-09-21T08:21:33.016Z,22.60
2018-09-21T08:24:00.173Z,22.80
2018-09-21T08:26:27.437Z,23.00
2018-09-21T08:28:54.721Z,23.10
2018-09-21T08:31:22.031Z,23.20
2018-09-21T08:33:49.384Z,23.30
2018-09-21T08:36:16.568Z,23.40
2018-09-21T08:38:43.712Z,23.40
2018-09-21T08:41:17.596Z,23.40
2018-09-21T08:43:44.764Z,23.40
2018-09-21T08:46:11.930Z,23.40
2018-09-21T08:48:39.084Z,23.40
2018-09-21T08:51:06.268Z,23.30
2018-09-21T08:53:33.489Z,23.30
2018-09-21T08:56:01.183Z,23.30
2018-09-21T08:58:28.335Z,23.30
2018-09-21T09:00:55.527Z,23.30
2018-09-21T09:03:22.732Z,23.30
2018-09-21T09:05:52.954Z,23.40
2018-09-21T09:08:21.024Z,23.40
2018-09-21T09:10:48.204Z,23.30
2018-09-21T09:13:15.716Z,23.30
2018-09-21T09:15:42.897Z,23.30
2018-09-21T09:18:10.049Z,23.40
2018-09-21T09:20:37.260Z,23.50
2018-09-21T09:23:04.708Z,23.50
2018-09-21T09:25:31.812Z,23.50
2018-09-21T09:27:58.992Z,23.50
2018-09-21T09:30:26.172Z,23.40
2018-09-21T09:32:54.025Z,23.40
2018-09-21T09:35:21.170Z,23.40
2018-09-21T09:37:48.331Z,23.40
2018-09-21T09:40:22.459Z,23.50
2018-09-21T09:42:49.845Z,23.60
2018-09-21T09:47:51.011Z,23.70
2018-09-21T09:50:18.184Z,23.70
2018-09-21T09:52:45.348Z,23.80
2018-09-21T09:55:13.249Z,23.90
2018-09-21T09:57:40.608Z,23.90
2018-09-21T10:00:08.370Z,23.90
2018-09-21T10:02:35.543Z,23.70
2018-09-21T10:05:03.087Z,23.70
2018-09-21T10:07:30.272Z,23.70
2018-09-21T10:09:57.418Z,23.70
2018-09-21T10:12:24.584Z,23.80
2018-09-21T10:14:51.756Z,23.80
2018-09-21T10:17:18.911Z,23.80
2018-09-21T10:19:46.075Z,23.80
2018-09-21T10:22:13.232Z,23.90
2018-09-21T10:24:40.431Z,23.90
2018-09-21T10:27:07.656Z,24.10
2018-09-21T10:29:34.772Z,24.10
2018-09-21T10:32:02.072Z,24.20
2018-09-21T10:34:29.298Z,24.20
2018-09-21T10:36:56.451Z,24.30
2018-09-21T10:39:23.747Z,24.30
2018-09-21T10:41:50.947Z,24.30
2018-09-21T10:44:18.208Z,24.30
2018-09-21T10:46:52.051Z,24.20
2018-09-21T10:49:19.223Z,24.20
2018-09-21T10:51:46.389Z,24.20
2018-09-21T10:54:13.556Z,24.20
2018-09-21T10:56:40.728Z,24.20
2018-09-21T10:59:07.895Z,24.20
2018-09-21T11:01:35.039Z,24.20
2018-09-21T11:04:02.479Z,24.10
2018-09-21T11:06:29.656Z,24.10
2018-09-21T11:08:56.871Z,24.20
2018-09-21T11:11:24.016Z,24.20
2018-09-21T11:13:51.177Z,24.20
2018-09-21T11:16:18.395Z,24.40
2018-09-21T11:18:52.216Z,24.40
2018-09-21T11:21:19.363Z,24.50
2018-09-21T11:23:46.532Z,24.40
2018-09-21T11:26:13.675Z,24.50
2018-09-21T11:28:40.823Z,24.40
2018-09-21T11:31:08.098Z,24.30
2018-09-21T11:33:35.260Z,24.20
2018-09-21T11:36:02.441Z,24.30
2018-09-21T11:38:29.639Z,24.30
2018-09-21T11:40:56.825Z,24.30
2018-09-21T11:43:23.959Z,24.30
2018-09-21T11:45:51.187Z,24.30
2018-09-21T11:48:18.374Z,24.30
2018-09-21T11:50:45.548Z,24.30
2018-09-21T11:53:12.759Z,24.30
2018-09-21T11:55:39.915Z,24.40
2018-09-21T11:58:07.092Z,24.40
2018-09-21T12:00:34.275Z,24.40
2018-09-21T12:03:01.476Z,24.30
2018-09-21T12:05:28.649Z,24.30
2018-09-21T12:07:55.796Z,24.20
2018-09-21T12:10:23.023Z,24.20
2018-09-21T12:12:50.129Z,24.10
2018-09-21T12:15:17.312Z,24.10
2018-09-21T12:17:44.465Z,24.00
2018-09-21T12:20:11.639Z,23.90
2018-09-21T12:22:38.820Z,24.00
2018-09-21T12:25:05.979Z,24.00
2018-09-21T12:27:33.140Z,23.90
2018-09-21T12:30:00.308Z,23.70
2018-09-21T12:32:27.472Z,23.30
2018-09-21T12:34:54.652Z,23.10
2018-09-21T12:37:21.829Z,22.90
2018-09-21T12:39:48.991Z,22.90
2018-09-21T12:42:16.139Z,22.80
2018-09-21T12:44:43.433Z,22.80
2018-09-21T12:47:10.498Z,22.80
2018-09-21T12:49:37.843Z,22.80
2018-09-21T12:52:05.359Z,22.90
2018-09-21T12:54:32.527Z,22.90
2018-09-21T12:56:59.692Z,23.00
2018-09-21T12:59:26.850Z,23.00
2018-09-21T13:01:54.019Z,23.10
2018-09-21T13:04:21.287Z,23.10
2018-09-21T13:06:48.475Z,23.10
2018-09-21T13:09:15.642Z,23.00
2018-09-21T13:11:42.927Z,23.00
2018-09-21T13:14:10.088Z,23.00
2018-09-21T13:16:37.269Z,22.90
2018-09-21T13:19:04.476Z,23.00
2018-09-21T13:21:31.656Z,23.00
2018-09-21T13:23:58.827Z,23.10
2018-09-21T13:26:26.018Z,22.90
2018-09-21T13:28:53.179Z,22.90
2018-09-21T13:31:20.348Z,22.80
2018-09-21T13:33:47.512Z,22.80
2018-09-21T13:36:14.667Z,22.80
2018-09-21T13:38:41.819Z,22.80
2018-09-21T13:41:08.985Z,22.70
2018-09-21T13:43:36.178Z,22.50
2018-09-21T13:46:03.341Z,22.00
2018-09-21T13:48:30.492Z,21.30
2018-09-21T13:50:57.664Z,20.70
2018-09-21T13:53:24.816Z,20.30
2018-09-21T13:55:51.983Z,20.00
2018-09-21T13:58:19.143Z,19.80
2018-09-21T14:00:46.323Z,19.50
2018-09-21T14:03:13.471Z,19.20
2018-09-21T14:05:40.874Z,19.10
2018-09-21T14:08:07.999Z,18.90
2018-09-21T14:10:35.183Z,18.90
2018-09-21T14:13:02.584Z,18.70
2018-09-21T14:15:29.739Z,18.70
2018-09-21T14:17:56.887Z,18.70
2018-09-21T14:20:24.048Z,18.60
2018-09-21T14:22:51.286Z,18.40
2018-09-21T14:25:18.444Z,18.20
2018-09-21T14:27:45.811Z,18.20
2018-09-21T14:30:12.994Z,18.10
2018-09-21T14:32:40.179Z,17.90
2018-09-21T14:35:07.471Z,17.80
2018-09-21T14:37:34.702Z,17.80
2018-09-21T14:40:02.159Z,17.70
2018-09-21T14:42:29.415Z,17.70
2018-09-21T14:44:56.647Z,17.80
2018-09-21T14:47:23.915Z,17.80
2018-09-21T14:49:51.075Z,17.80
2018-09-21T14:52:18.321Z,17.70
2018-09-21T14:54:52.369Z,17.80
2018-09-21T14:57:19.557Z,17.60
2018-09-21T14:59:46.763Z,17.40
2018-09-21T15:02:13.942Z,17.20
2018-09-21T15:04:41.123Z,17.00
2018-09-21T15:07:08.372Z,16.90
2018-09-21T15:09:35.632Z,16.90
2018-09-21T15:12:02.882Z,16.90
2018-09-21T15:14:30.072Z,17.00
2018-09-21T15:16:57.295Z,17.00
2018-09-21T15:19:24.494Z,17.00
2018-09-21T15:21:51.731Z,17.10
2018-09-21T15:24:18.891Z,17.20
2018-09-21T15:26:46.098Z,17.20
2018-09-21T15:29:13.344Z,17.30
2018-09-21T15:31:40.496Z,17.20
2018-09-21T15:34:07.703Z,17.20
2018-09-21T15:36:34.927Z,17.40
2018-09-21T15:39:02.467Z,17.40
2018-09-21T15:41:29.615Z,17.30
2018-09-21T15:43:56.779Z,17.40
2018-09-21T15:46:23.947Z,17.40
2018-09-21T15:48:51.161Z,17.40
2018-09-21T15:51:18.355Z,17.50
2018-09-21T15:53:45.732Z,17.70
2018-09-21T15:56:12.902Z,17.90
2018-09-21T15:58:40.107Z,18.00
2018-09-21T16:01:07.340Z,18.00
2018-09-21T16:03:34.512Z,18.00
2018-09-21T16:06:01.755Z,18.00
2018-09-21T16:08:28.856Z,17.90
2018-09-21T16:10:56.070Z,17.90
2018-09-21T16:13:23.227Z,17.80
2018-09-21T16:15:50.615Z,17.80
2018-09-21T16:18:17.838Z,17.90
2018-09-21T16:20:44.996Z,17.80
2018-09-21T16:23:12.168Z,17.90
2018-09-21T16:25:39.459Z,17.80
2018-09-21T16:28:06.655Z,17.80
2018-09-21T16:30:33.927Z,17.70
2018-09-21T16:33:01.175Z,17.70
2018-09-21T16:35:28.284Z,17.60
2018-09-21T16:37:55.479Z,17.60
2018-09-21T16:40:22.640Z,17.50
2018-09-21T16:42:49.823Z,17.50
2018-09-21T16:45:17.011Z,17.60
2018-09-21T16:47:44.180Z,17.70
2018-09-21T16:50:11.348Z,17.60
2018-09-21T16:52:38.672Z,17.70
2018-09-21T16:55:05.856Z,17.70
2018-09-21T16:57:33.015Z,17.70
2018-09-21T17:00:00.201Z,17.60
2018-09-21T17:02:27.351Z,17.40
2018-09-21T17:04:54.583Z,17.10
2018-09-21T17:07:21.728Z,17.00
2018-09-21T17:09:49.292Z,16.90
2018-09-21T17:12:16.808Z,16.90
2018-09-21T17:14:43.988Z,16.80
2018-09-21T17:17:11.151Z,16.80
2018-09-21T17:19:38.784Z,16.90
2018-09-21T17:22:05.960Z,16.90
2018-09-21T17:24:33.147Z,17.00
2018-09-21T17:27:00.323Z,16.90
2018-09-21T17:29:27.471Z,16.90
2018-09-21T17:31:54.673Z,16.90
2018-09-21T17:34:21.811Z,16.80
2018-09-21T17:36:49.123Z,16.80
2018-09-21T17:39:16.276Z,16.70
2018-09-21T17:41:43.436Z,16.70
2018-09-21T17:44:10.606Z,16.60
2018-09-21T17:46:37.795Z,16.70
2018-09-21T17:49:05.294Z,16.60
2018-09-21T17:51:32.432Z,16.70
2018-09-21T17:53:59.711Z,16.70
2018-09-21T17:56:26.884Z,16.60
2018-09-21T17:58:54.045Z,16.60
2018-09-21T18:01:21.199Z,16.60
2018-09-21T18:03:48.395Z,16.60
2018-09-21T18:06:15.575Z,16.50
2018-09-21T18:08:42.740Z,16.60
2018-09-21T18:11:09.903Z,16.50
2018-09-21T18:13:37.088Z,16.50
2018-09-21T18:16:04.331Z,16.60
2018-09-21T18:18:31.415Z,16.60
2018-09-21T18:20:58.598Z,16.50
2018-09-21T18:23:25.754Z,16.50
2018-09-21T18:25:52.995Z,16.50
2018-09-21T18:28:20.083Z,16.50
2018-09-21T18:30:47.252Z,16.50
2018-09-21T18:33:14.445Z,16.60
2018-09-21T18:35:48.435Z,16.50
2018-09-21T18:38:15.582Z,16.40
2018-09-21T18:40:42.800Z,16.40
2018-09-21T18:43:09.963Z,16.40
2018-09-21T18:45:37.155Z,16.40
2018-09-21T18:48:04.331Z,16.50
2018-09-21T18:50:31.586Z,16.60
2018-09-21T18:52:58.651Z,16.50
2018-09-21T18:55:25.811Z,16.60
2018-09-21T18:57:52.962Z,16.50
2018-09-21T19:00:20.116Z,16.50
2018-09-21T19:02:47.271Z,16.50
2018-09-21T19:05:14.432Z,16.50
2018-09-21T19:07:41.579Z,16.50
2018-09-21T19:10:08.739Z,16.40
2018-09-21T19:12:35.928Z,16.50
2018-09-21T19:15:03.105Z,16.50
2018-09-21T19:17:30.266Z,16.40
2018-09-21T19:19:57.403Z,16.40
2018-09-21T19:22:24.567Z,16.30
2018-09-21T19:24:51.732Z,16.40
2018-09-21T19:27:19.119Z,16.50
2018-09-21T19:32:20.391Z,16.60
2018-09-21T19:34:54.327Z,16.60
2018-09-21T19:37:21.489Z,16.60
2018-09-21T19:39:48.645Z,16.50
2018-09-21T19:42:15.803Z,16.50
2018-09-21T19:44:49.781Z,16.30
2018-09-21T19:47:16.923Z,16.20
2018-09-21T19:49:44.073Z,16.10
2018-09-21T19:52:11.238Z,16.00
2018-09-21T19:54:38.527Z,16.00
2018-09-21T19:57:05.814Z,16.00
2018-09-21T19:59:32.955Z,16.00
2018-09-21T20:02:00.142Z,16.00
2018-09-21T20:04:27.280Z,15.90
2018-09-21T20:06:54.452Z,15.90
2018-09-21T20:09:21.608Z,15.90
2018-09-21T20:11:48.767Z,15.80
2018-09-21T20:14:15.907Z,15.80
2018-09-21T20:16:43.059Z,15.80
2018-09-21T20:19:10.227Z,15.90
2018-09-21T20:21:37.512Z,15.90
2018-09-21T20:24:04.707Z,15.90
2018-09-21T20:26:38.627Z,15.80
2018-09-21T20:29:05.819Z,15.80
2018-09-21T20:31:38.726Z,15.80
2018-09-21T20:34:05.894Z,15.70
2018-09-21T20:36:33.051Z,15.80
2018-09-21T20:39:00.224Z,15.80
2018-09-21T20:41:27.379Z,15.80
2018-09-21T20:43:54.575Z,15.80
2018-09-21T20:46:21.739Z,15.70
2018-09-21T20:48:48.899Z,15.80
2018-09-21T20:51:16.071Z,15.90
2018-09-21T20:53:43.224Z,15.90
2018-09-21T20:56:10.388Z,15.90
2018-09-21T20:58:37.606Z,15.80
2018-09-21T21:01:11.588Z,15.80
2018-09-21T21:03:38.767Z,15.70
2018-09-21T21:06:05.996Z,15.80
2018-09-21T21:08:33.258Z,15.90
2018-09-21T21:11:00.446Z,15.90
2018-09-21T21:13:27.616Z,15.90
2018-09-21T21:15:54.786Z,16.00
2018-09-21T21:18:22.143Z,16.10
2018-09-21T21:20:49.296Z,16.20
2018-09-21T21:23:16.445Z,16.10
2018-09-21T21:25:43.592Z,16.10
2018-09-21T21:28:10.758Z,16.00
2018-09-21T21:30:37.951Z,16.00
2018-09-21T21:33:05.135Z,16.10
2018-09-21T21:35:32.299Z,16.00
2018-09-21T21:37:59.457Z,16.00
2018-09-21T21:40:26.623Z,16.00
2018-09-21T21:42:53.772Z,16.10
2018-09-21T21:45:20.932Z,16.10
2018-09-21T21:47:48.088Z,16.00
2018-09-21T21:50:15.247Z,16.00
2018-09-21T21:52:42.401Z,16.00
2018-09-21T21:55:09.575Z,15.90
2018-09-21T21:57:36.727Z,15.90
2018-09-21T22:00:05.032Z,15.90
2018-09-21T22:02:34.064Z,15.90
2018-09-21T22:05:01.229Z,15.90
2018-09-21T22:07:32.080Z,15.80
2018-09-21T22:09:59.828Z,15.70
2018-09-21T22:12:32.833Z,15.50
2018-09-21T22:14:59.972Z,15.50
2018-09-21T22:17:27.148Z,15.50
2018-09-21T22:19:54.299Z,15.50
2018-09-21T22:22:21.454Z,15.40
2018-09-21T22:24:48.612Z,15.40
2018-09-21T22:27:15.768Z,15.40
2018-09-21T22:29:42.941Z,15.30
2018-09-21T22:32:10.119Z,15.20
2018-09-21T22:34:37.291Z,15.20
2018-09-21T22:37:04.605Z,15.10
2018-09-21T22:39:31.828Z,15.10
2018-09-21T22:41:58.935Z,14.90
2018-09-21T22:44:26.087Z,14.80
2018-09-21T22:46:53.239Z,14.80
2018-09-21T22:49:21.779Z,14.70
2018-09-21T22:51:49.073Z,14.80
2018-09-21T22:54:16.234Z,14.60
2018-09-21T22:56:43.375Z,14.60
2018-09-21T22:59:17.323Z,14.40
2018-09-21T23:01:44.494Z,14.50
2018-09-21T23:04:11.727Z,14.40
2018-09-21T23:06:38.888Z,14.40
2018-09-21T23:09:08.380Z,14.30
2018-09-21T23:11:35.536Z,14.20
2018-09-21T23:14:02.718Z,14.20
2018-09-21T23:16:29.873Z,14.20
2018-09-21T23:18:57.048Z,14.30
2018-09-21T23:21:24.232Z,14.20
2018-09-21T23:23:51.400Z,14.20
2018-09-21T23:26:18.542Z,14.30
2018-09-21T23:28:45.707Z,14.20
2018-09-21T23:31:12.887Z,14.20
2018-09-21T23:33:40.065Z,14.10
2018-09-21T23:36:07.236Z,14.00
2018-09-21T23:38:34.384Z,13.90
2018-09-21T23:41:01.543Z,13.90
2018-09-21T23:43:28.687Z,13.80
2018-09-21T23:46:02.711Z,13.70
2018-09-21T23:48:29.865Z,13.70
2018-09-21T23:50:57.031Z,13.60
2018-09-21T23:53:24.189Z,13.50
2018-09-21T23:55:51.369Z,13.40
2018-09-21T23:58:18.525Z,13.30
